KAQW/AQW METAR and TAF weather

Enter ICAO airport designator
Station Type Date Time Source
KAQW METAR 2018/07/21 03:52 UTC NOAA

KAQW 210352Z AUTO 11004KT 10SM CLR 18/13 A3014 RMK AO2 SLP203 T01780133


Station Type Date Time Source
KAQW Decoded METAR 2018/07/21 03:52 UTC NOAA

N ADAMS HARRIMAN-AND-WEST, MA, United States (KAQW) 42-42N 073-10W 201M
Jul 20, 2018 - 11:52 PM EDT / 2018.07.21 0352 UTC
Wind: from the ESE (110 degrees) at 5 MPH (4 KT):0
Visibility: 10 mile(s):0
Sky conditions: clear
Temperature: 64.0 F (17.8 C)
Dew Point: 55.9 F (13.3 C)
Relative Humidity: 74%
Pressure (altimeter): 30.14 in. Hg (1020 hPa)
ob: KAQW 210352Z AUTO 11004KT 10SM CLR 18/13 A3014 RMK AO2 SLP203 T01780133
cycle: 4

Station Type Date Time Source
KAQW TAF UTC NOAA

Error!


Example: see airport list